sensor_id;sensor_type;location;lat;lon;timestamp;temperature;humidity
68439;SHT31;55421;51.600;5.718;2023-06-22T00:00:58;21.62;62.31
68439;SHT31;55421;51.600;5.718;2023-06-22T00:03:32;21.59;62.46
68439;SHT31;55421;51.600;5.718;2023-06-22T00:05:58;21.53;62.58
68439;SHT31;55421;51.600;5.718;2023-06-22T00:08:25;21.48;62.73
68439;SHT31;55421;51.600;5.718;2023-06-22T00:10:51;21.44;62.99
68439;SHT31;55421;51.600;5.718;2023-06-22T00:13:18;21.42;63.15
68439;SHT31;55421;51.600;5.718;2023-06-22T00:15:45;21.42;63.26
68439;SHT31;55421;51.600;5.718;2023-06-22T00:18:12;21.42;63.41
68439;SHT31;55421;51.600;5.718;2023-06-22T00:20:39;21.42;63.54
68439;SHT31;55421;51.600;5.718;2023-06-22T00:23:08;21.42;63.60
68439;SHT31;55421;51.600;5.718;2023-06-22T00:25:38;21.42;63.76
68439;SHT31;55421;51.600;5.718;2023-06-22T00:28:08;21.40;63.89
68439;SHT31;55421;51.600;5.718;2023-06-22T00:30:35;21.37;63.94
68439;SHT31;55421;51.600;5.718;2023-06-22T00:33:02;21.34;63.99
68439;SHT31;55421;51.600;5.718;2023-06-22T00:35:29;21.32;64.10
68439;SHT31;55421;51.600;5.718;2023-06-22T00:37:56;21.30;64.22
68439;SHT31;55421;51.600;5.718;2023-06-22T00:40:33;21.27;64.31
68439;SHT31;55421;51.600;5.718;2023-06-22T00:43:00;21.25;64.46
68439;SHT31;55421;51.600;5.718;2023-06-22T00:45:27;21.26;64.58
68439;SHT31;55421;51.600;5.718;2023-06-22T00:47:56;21.26;64.65
68439;SHT31;55421;51.600;5.718;2023-06-22T00:50:27;21.27;64.69
68439;SHT31;55421;51.600;5.718;2023-06-22T00:53:00;21.26;64.76
68439;SHT31;55421;51.600;5.718;2023-06-22T00:55:52;21.24;64.81
68439;SHT31;55421;51.600;5.718;2023-06-22T00:58:19;21.22;64.94
68439;SHT31;55421;51.600;5.718;2023-06-22T01:00:48;21.21;65.04
68439;SHT31;55421;51.600;5.718;2023-06-22T01:03:15;21.19;65.12
68439;SHT31;55421;51.600;5.718;2023-06-22T01:05:43;21.20;65.17
68439;SHT31;55421;51.600;5.718;2023-06-22T01:11:16;21.19;65.31
68439;SHT31;55421;51.600;5.718;2023-06-22T01:13:57;21.17;65.40
68439;SHT31;55421;51.600;5.718;2023-06-22T01:16:33;21.13;65.53
68439;SHT31;55421;51.600;5.718;2023-06-22T01:22:07;21.05;65.76
68439;SHT31;55421;51.600;5.718;2023-06-22T01:24:45;21.02;65.87
68439;SHT31;55421;51.600;5.718;2023-06-22T01:27:50;21.00;65.99
68439;SHT31;55421;51.600;5.718;2023-06-22T01:30:27;20.99;66.11
68439;SHT31;55421;51.600;5.718;2023-06-22T01:32:57;20.98;66.17
68439;SHT31;55421;51.600;5.718;2023-06-22T01:35:24;20.98;66.20
68439;SHT31;55421;51.600;5.718;2023-06-22T01:37:52;20.96;66.27
68439;SHT31;55421;51.600;5.718;2023-06-22T01:40:19;20.95;66.31
68439;SHT31;55421;51.600;5.718;2023-06-22T01:42:48;20.96;66.32
68439;SHT31;55421;51.600;5.718;2023-06-22T01:45:16;20.96;66.33
68439;SHT31;55421;51.600;5.718;2023-06-22T01:47:44;20.96;66.40
68439;SHT31;55421;51.600;5.718;2023-06-22T01:50:12;20.95;66.46
68439;SHT31;55421;51.600;5.718;2023-06-22T01:52:38;20.92;66.54
68439;SHT31;55421;51.600;5.718;2023-06-22T01:55:05;20.89;66.66
68439;SHT31;55421;51.600;5.718;2023-06-22T01:57:34;20.87;66.74
68439;SHT31;55421;51.600;5.718;2023-06-22T02:05:31;20.81;66.97
68439;SHT31;55421;51.600;5.718;2023-06-22T02:08:32;20.80;67.00
68439;SHT31;55421;51.600;5.718;2023-06-22T02:11:22;20.77;67.02
68439;SHT31;55421;51.600;5.718;2023-06-22T02:13:53;20.76;67.08
68439;SHT31;55421;51.600;5.718;2023-06-22T02:16:23;20.74;67.12
68439;SHT31;55421;51.600;5.718;2023-06-22T02:18:50;20.72;67.20
68439;SHT31;55421;51.600;5.718;2023-06-22T02:21:18;20.72;67.23
68439;SHT31;55421;51.600;5.718;2023-06-22T02:23:46;20.72;67.30
68439;SHT31;55421;51.600;5.718;2023-06-22T02:26:13;20.72;67.32
68439;SHT31;55421;51.600;5.718;2023-06-22T02:28:43;20.71;67.34
68439;SHT31;55421;51.600;5.718;2023-06-22T02:31:11;20.69;67.35
68439;SHT31;55421;51.600;5.718;2023-06-22T02:33:37;20.68;67.42
68439;SHT31;55421;51.600;5.718;2023-06-22T02:36:04;20.67;67.47
68439;SHT31;55421;51.600;5.718;2023-06-22T02:38:31;20.66;67.51
68439;SHT31;55421;51.600;5.718;2023-06-22T02:41:00;20.62;67.57
68439;SHT31;55421;51.600;5.718;2023-06-22T02:43:27;20.57;67.65
68439;SHT31;55421;51.600;5.718;2023-06-22T02:45:54;20.50;67.79
68439;SHT31;55421;51.600;5.718;2023-06-22T02:48:21;20.43;67.92
68439;SHT31;55421;51.600;5.718;2023-06-22T02:50:48;20.39;68.03
68439;SHT31;55421;51.600;5.718;2023-06-22T02:53:14;20.37;68.12
68439;SHT31;55421;51.600;5.718;2023-06-22T02:55:41;20.37;68.19
68439;SHT31;55421;51.600;5.718;2023-06-22T02:58:07;20.37;68.23
68439;SHT31;55421;51.600;5.718;2023-06-22T03:00:34;20.39;68.21
68439;SHT31;55421;51.600;5.718;2023-06-22T03:03:01;20.41;68.20
68439;SHT31;55421;51.600;5.718;2023-06-22T03:05:27;20.41;68.18
68439;SHT31;55421;51.600;5.718;2023-06-22T03:07:54;20.39;68.16
68439;SHT31;55421;51.600;5.718;2023-06-22T03:10:21;20.38;68.21
68439;SHT31;55421;51.600;5.718;2023-06-22T03:12:47;20.37;68.25
68439;SHT31;55421;51.600;5.718;2023-06-22T03:15:14;20.36;68.29
68439;SHT31;55421;51.600;5.718;2023-06-22T03:17:40;20.35;68.30
68439;SHT31;55421;51.600;5.718;2023-06-22T03:20:08;20.36;68.30
68439;SHT31;55421;51.600;5.718;2023-06-22T03:22:37;20.35;68.25
68439;SHT31;55421;51.600;5.718;2023-06-22T03:25:05;20.33;68.27
68439;SHT31;55421;51.600;5.718;2023-06-22T03:27:39;20.33;68.26
68439;SHT31;55421;51.600;5.718;2023-06-22T03:30:12;20.30;68.28
68439;SHT31;55421;51.600;5.718;2023-06-22T03:32:39;20.27;68.35
68439;SHT31;55421;51.600;5.718;2023-06-22T03:35:06;20.26;68.39
68439;SHT31;55421;51.600;5.718;2023-06-22T03:37:33;20.24;68.52
68439;SHT31;55421;51.600;5.718;2023-06-22T03:39:59;20.24;68.56
68439;SHT31;55421;51.600;5.718;2023-06-22T03:42:26;20.22;68.60
68439;SHT31;55421;51.600;5.718;2023-06-22T03:44:52;20.19;68.70
68439;SHT31;55421;51.600;5.718;2023-06-22T03:47:19;20.14;68.79
68439;SHT31;55421;51.600;5.718;2023-06-22T03:49:45;20.08;68.93
68439;SHT31;55421;51.600;5.718;2023-06-22T03:52:12;20.01;69.07
68439;SHT31;55421;51.600;5.718;2023-06-22T03:54:39;20.00;69.21
68439;SHT31;55421;51.600;5.718;2023-06-22T03:57:05;20.01;69.30
68439;SHT31;55421;51.600;5.718;2023-06-22T03:59:32;20.05;69.30
68439;SHT31;55421;51.600;5.718;2023-06-22T04:01:59;20.05;69.32
68439;SHT31;55421;51.600;5.718;2023-06-22T04:04:25;20.06;69.39
68439;SHT31;55421;51.600;5.718;2023-06-22T04:06:52;20.04;69.39
68439;SHT31;55421;51.600;5.718;2023-06-22T04:09:18;20.00;69.49
68439;SHT31;55421;51.600;5.718;2023-06-22T04:11:45;19.99;69.52
68439;SHT31;55421;51.600;5.718;2023-06-22T04:14:11;19.98;69.62
68439;SHT31;55421;51.600;5.718;2023-06-22T04:16:38;20.01;69.68
68439;SHT31;55421;51.600;5.718;2023-06-22T04:19:05;20.05;69.70
68439;SHT31;55421;51.600;5.718;2023-06-22T04:21:31;20.12;69.67
68439;SHT31;55421;51.600;5.718;2023-06-22T04:23:58;20.19;69.60
68439;SHT31;55421;51.600;5.718;2023-06-22T04:26:24;20.30;69.49
68439;SHT31;55421;51.600;5.718;2023-06-22T04:28:51;20.39;69.40
68439;SHT31;55421;51.600;5.718;2023-06-22T04:31:21;20.50;69.30
68439;SHT31;55421;51.600;5.718;2023-06-22T04:33:53;20.68;69.00
68439;SHT31;55421;51.600;5.718;2023-06-22T04:36:20;20.81;68.73
68439;SHT31;55421;51.600;5.718;2023-06-22T04:38:47;20.88;68.54
68439;SHT31;55421;51.600;5.718;2023-06-22T04:41:14;20.92;68.38
68439;SHT31;55421;51.600;5.718;2023-06-22T04:43:49;20.94;68.23
68439;SHT31;55421;51.600;5.718;2023-06-22T04:46:20;21.07;67.98
68439;SHT31;55421;51.600;5.718;2023-06-22T04:48:46;21.13;67.90
68439;SHT31;55421;51.600;5.718;2023-06-22T04:51:12;21.17;67.88
68439;SHT31;55421;51.600;5.718;2023-06-22T04:53:39;21.18;67.84
68439;SHT31;55421;51.600;5.718;2023-06-22T04:56:08;21.17;67.83
68439;SHT31;55421;51.600;5.718;2023-06-22T04:58:34;21.14;67.90
68439;SHT31;55421;51.600;5.718;2023-06-22T05:01:01;21.18;67.93
68439;SHT31;55421;51.600;5.718;2023-06-22T05:03:27;21.23;67.92
68439;SHT31;55421;51.600;5.718;2023-06-22T05:05:54;21.28;67.99
68439;SHT31;55421;51.600;5.718;2023-06-22T05:08:20;21.33;67.91
68439;SHT31;55421;51.600;5.718;2023-06-22T05:10:47;21.37;67.85
68439;SHT31;55421;51.600;5.718;2023-06-22T05:13:13;21.42;67.78
68439;SHT31;55421;51.600;5.718;2023-06-22T05:15:40;21.44;67.71
68439;SHT31;55421;51.600;5.718;2023-06-22T05:18:06;21.47;67.76
68439;SHT31;55421;51.600;5.718;2023-06-22T05:20:33;21.51;67.79
68439;SHT31;55421;51.600;5.718;2023-06-22T05:23:02;21.58;67.84
68439;SHT31;55421;51.600;5.718;2023-06-22T05:25:28;21.69;67.81
68439;SHT31;55421;51.600;5.718;2023-06-22T05:27:56;21.81;67.70
68439;SHT31;55421;51.600;5.718;2023-06-22T05:30:23;21.92;67.60
68439;SHT31;55421;51.600;5.718;2023-06-22T05:32:49;22.03;67.47
68439;SHT31;55421;51.600;5.718;2023-06-22T05:35:16;22.07;67.30
68439;SHT31;55421;51.600;5.718;2023-06-22T05:37:42;22.09;67.20
68439;SHT31;55421;51.600;5.718;2023-06-22T05:40:09;22.10;67.26
68439;SHT31;55421;51.600;5.718;2023-06-22T05:42:36;22.06;67.34
68439;SHT31;55421;51.600;5.718;2023-06-22T05:45:03;22.03;67.49
68439;SHT31;55421;51.600;5.718;2023-06-22T05:47:30;22.01;67.67
68439;SHT31;55421;51.600;5.718;2023-06-22T05:49:57;22.00;67.68
68439;SHT31;55421;51.600;5.718;2023-06-22T05:52:24;21.99;67.78
68439;SHT31;55421;51.600;5.718;2023-06-22T05:54:50;21.98;67.91
68439;SHT31;55421;51.600;5.718;2023-06-22T05:57:17;21.96;68.12
68439;SHT31;55421;51.600;5.718;2023-06-22T05:59:43;21.96;68.29
68439;SHT31;55421;51.600;5.718;2023-06-22T06:02:10;21.99;68.37
68439;SHT31;55421;51.600;5.718;2023-06-22T06:04:36;22.04;68.48
68439;SHT31;55421;51.600;5.718;2023-06-22T06:07:03;22.10;68.54
68439;SHT31;55421;51.600;5.718;2023-06-22T06:09:30;22.12;68.61
68439;SHT31;55421;51.600;5.718;2023-06-22T06:11:56;22.15;68.62
68439;SHT31;55421;51.600;5.718;2023-06-22T06:14:23;22.16;68.54
68439;SHT31;55421;51.600;5.718;2023-06-22T06:16:49;22.17;68.54
68439;SHT31;55421;51.600;5.718;2023-06-22T06:19:16;22.20;68.60
68439;SHT31;55421;51.600;5.718;2023-06-22T06:21:43;22.24;68.64
68439;SHT31;55421;51.600;5.718;2023-06-22T06:24:09;22.27;68.52
68439;SHT31;55421;51.600;5.718;2023-06-22T06:26:36;22.30;68.36
68439;SHT31;55421;51.600;5.718;2023-06-22T06:29:02;22.33;68.21
68439;SHT31;55421;51.600;5.718;2023-06-22T06:31:29;22.35;68.20
68439;SHT31;55421;51.600;5.718;2023-06-22T06:33:56;22.39;68.09
68439;SHT31;55421;51.600;5.718;2023-06-22T06:36:23;22.40;68.03
68439;SHT31;55421;51.600;5.718;2023-06-22T06:38:49;22.42;68.13
68439;SHT31;55421;51.600;5.718;2023-06-22T06:41:16;22.45;68.11
68439;SHT31;55421;51.600;5.718;2023-06-22T06:43:42;22.48;68.13
68439;SHT31;55421;51.600;5.718;2023-06-22T06:46:09;22.52;67.99
68439;SHT31;55421;51.600;5.718;2023-06-22T06:48:36;22.55;67.79
68439;SHT31;55421;51.600;5.718;2023-06-22T06:51:02;22.57;67.80
68439;SHT31;55421;51.600;5.718;2023-06-22T06:53:29;22.59;67.89
68439;SHT31;55421;51.600;5.718;2023-06-22T06:55:56;22.62;67.90
68439;SHT31;55421;51.600;5.718;2023-06-22T06:58:23;22.64;67.78
68439;SHT31;55421;51.600;5.718;2023-06-22T07:00:49;22.63;67.62
68439;SHT31;55421;51.600;5.718;2023-06-22T07:03:16;22.64;67.69
68439;SHT31;55421;51.600;5.718;2023-06-22T07:05:42;22.67;67.66
68439;SHT31;55421;51.600;5.718;2023-06-22T07:08:08;22.69;67.55
68439;SHT31;55421;51.600;5.718;2023-06-22T07:10:35;22.69;67.51
68439;SHT31;55421;51.600;5.718;2023-06-22T07:13:03;22.71;67.65
68439;SHT31;55421;51.600;5.718;2023-06-22T07:15:29;22.74;67.79
68439;SHT31;55421;51.600;5.718;2023-06-22T07:17:56;22.77;67.70
68439;SHT31;55421;51.600;5.718;2023-06-22T07:20:22;22.78;67.77
68439;SHT31;55421;51.600;5.718;2023-06-22T07:22:49;22.80;67.56
68439;SHT31;55421;51.600;5.718;2023-06-22T07:25:15;22.81;67.40
68439;SHT31;55421;51.600;5.718;2023-06-22T07:27:56;22.84;67.41
68439;SHT31;55421;51.600;5.718;2023-06-22T07:30:25;22.88;67.23
68439;SHT31;55421;51.600;5.718;2023-06-22T07:32:53;22.92;67.15
68439;SHT31;55421;51.600;5.718;2023-06-22T07:35:19;22.96;67.18
68439;SHT31;55421;51.600;5.718;2023-06-22T07:37:46;23.00;67.21
68439;SHT31;55421;51.600;5.718;2023-06-22T07:40:13;23.04;67.20
68439;SHT31;55421;51.600;5.718;2023-06-22T07:42:39;23.09;67.16
68439;SHT31;55421;51.600;5.718;2023-06-22T07:45:06;23.12;67.11
68439;SHT31;55421;51.600;5.718;2023-06-22T07:47:34;23.16;66.81
68439;SHT31;55421;51.600;5.718;2023-06-22T07:50:01;23.22;66.73
68439;SHT31;55421;51.600;5.718;2023-06-22T07:52:29;23.25;66.47
68439;SHT31;55421;51.600;5.718;2023-06-22T07:54:57;23.30;66.36
68439;SHT31;55421;51.600;5.718;2023-06-22T07:57:23;23.35;66.25
68439;SHT31;55421;51.600;5.718;2023-06-22T07:59:58;23.40;66.07
68439;SHT31;55421;51.600;5.718;2023-06-22T08:02:32;23.47;66.23
68439;SHT31;55421;51.600;5.718;2023-06-22T08:04:58;23.55;66.10
68439;SHT31;55421;51.600;5.718;2023-06-22T08:07:25;23.60;65.88
68439;SHT31;55421;51.600;5.718;2023-06-22T08:09:58;23.62;65.71
68439;SHT31;55421;51.600;5.718;2023-06-22T08:12:25;23.62;65.68
68439;SHT31;55421;51.600;5.718;2023-06-22T08:14:51;23.59;65.58
68439;SHT31;55421;51.600;5.718;2023-06-22T08:17:18;23.60;65.58
68439;SHT31;55421;51.600;5.718;2023-06-22T08:19:44;23.63;65.53
68439;SHT31;55421;51.600;5.718;2023-06-22T08:22:11;23.66;65.28
68439;SHT31;55421;51.600;5.718;2023-06-22T08:24:37;23.71;65.19
68439;SHT31;55421;51.600;5.718;2023-06-22T08:27:06;23.75;65.19
68439;SHT31;55421;51.600;5.718;2023-06-22T08:29:35;23.80;64.94
68439;SHT31;55421;51.600;5.718;2023-06-22T08:32:03;23.83;64.65
68439;SHT31;55421;51.600;5.718;2023-06-22T08:34:30;23.86;64.91
68439;SHT31;55421;51.600;5.718;2023-06-22T08:36:56;23.90;64.93
68439;SHT31;55421;51.600;5.718;2023-06-22T08:39:23;23.96;64.88
68439;SHT31;55421;51.600;5.718;2023-06-22T08:41:49;24.00;64.54
68439;SHT31;55421;51.600;5.718;2023-06-22T08:44:16;24.08;64.37
68439;SHT31;55421;51.600;5.718;2023-06-22T08:46:45;24.17;64.43
68439;SHT31;55421;51.600;5.718;2023-06-22T08:49:12;24.29;64.50
68439;SHT31;55421;51.600;5.718;2023-06-22T08:51:38;24.38;64.33
68439;SHT31;55421;51.600;5.718;2023-06-22T08:54:05;24.48;64.46
68439;SHT31;55421;51.600;5.718;2023-06-22T08:56:31;24.55;64.29
68439;SHT31;55421;51.600;5.718;2023-06-22T08:58:58;24.61;63.69
68439;SHT31;55421;51.600;5.718;2023-06-22T09:01:25;24.62;63.58
68439;SHT31;55421;51.600;5.718;2023-06-22T09:03:51;24.61;63.69
68439;SHT31;55421;51.600;5.718;2023-06-22T09:06:21;24.59;63.51
68439;SHT31;55421;51.600;5.718;2023-06-22T09:08:48;24.54;63.38
68439;SHT31;55421;51.600;5.718;2023-06-22T09:11:15;24.50;63.37
68439;SHT31;55421;51.600;5.718;2023-06-22T09:13:41;24.47;63.47
68439;SHT31;55421;51.600;5.718;2023-06-22T09:16:08;24.44;63.41
68439;SHT31;55421;51.600;5.718;2023-06-22T09:18:35;24.40;63.56
68439;SHT31;55421;51.600;5.718;2023-06-22T09:21:02;24.35;63.50
68439;SHT31;55421;51.600;5.718;2023-06-22T09:23:28;24.30;63.54
68439;SHT31;55421;51.600;5.718;2023-06-22T09:25:55;24.28;63.50
68439;SHT31;55421;51.600;5.718;2023-06-22T09:28:22;24.22;63.46
68439;SHT31;55421;51.600;5.718;2023-06-22T09:30:48;24.17;63.59
68439;SHT31;55421;51.600;5.718;2023-06-22T09:33:15;24.10;63.64
68439;SHT31;55421;51.600;5.718;2023-06-22T09:35:41;24.05;63.89
68439;SHT31;55421;51.600;5.718;2023-06-22T09:38:07;24.02;64.00
68439;SHT31;55421;51.600;5.718;2023-06-22T09:40:34;23.99;64.12
68439;SHT31;55421;51.600;5.718;2023-06-22T09:43:06;23.95;64.11
68439;SHT31;55421;51.600;5.718;2023-06-22T09:45:32;23.92;64.17
68439;SHT31;55421;51.600;5.718;2023-06-22T09:47:59;23.90;64.08
68439;SHT31;55421;51.600;5.718;2023-06-22T09:50:25;23.88;64.09
68439;SHT31;55421;51.600;5.718;2023-06-22T09:52:52;23.85;64.23
68439;SHT31;55421;51.600;5.718;2023-06-22T09:55:21;23.83;64.27
68439;SHT31;55421;51.600;5.718;2023-06-22T09:57:48;23.81;64.21
68439;SHT31;55421;51.600;5.718;2023-06-22T10:00:16;23.80;64.16
68439;SHT31;55421;51.600;5.718;2023-06-22T10:02:46;23.81;64.18
68439;SHT31;55421;51.600;5.718;2023-06-22T10:05:13;23.81;64.24
68439;SHT31;55421;51.600;5.718;2023-06-22T10:07:42;23.82;64.16
68439;SHT31;55421;51.600;5.718;2023-06-22T10:10:10;23.83;64.06
68439;SHT31;55421;51.600;5.718;2023-06-22T10:12:41;23.83;63.93
68439;SHT31;55421;51.600;5.718;2023-06-22T10:15:20;23.84;64.04
68439;SHT31;55421;51.600;5.718;2023-06-22T10:17:47;23.85;64.02
68439;SHT31;55421;51.600;5.718;2023-06-22T10:20:14;23.87;63.94
68439;SHT31;55421;51.600;5.718;2023-06-22T10:22:42;23.90;63.87
68439;SHT31;55421;51.600;5.718;2023-06-22T10:25:11;23.92;63.81
68439;SHT31;55421;51.600;5.718;2023-06-22T10:27:39;23.92;63.75
68439;SHT31;55421;51.600;5.718;2023-06-22T10:30:06;23.92;63.76
68439;SHT31;55421;51.600;5.718;2023-06-22T10:32:41;23.92;63.92
68439;SHT31;55421;51.600;5.718;2023-06-22T10:35:09;23.94;64.03
68439;SHT31;55421;51.600;5.718;2023-06-22T10:37:45;23.96;64.21
68439;SHT31;55421;51.600;5.718;2023-06-22T10:40:13;24.01;64.13
68439;SHT31;55421;51.600;5.718;2023-06-22T10:42:41;24.05;64.02
68439;SHT31;55421;51.600;5.718;2023-06-22T10:45:08;24.10;63.94
68439;SHT31;55421;51.600;5.718;2023-06-22T10:47:35;24.13;63.94
68439;SHT31;55421;51.600;5.718;2023-06-22T10:50:02;24.16;63.81
68439;SHT31;55421;51.600;5.718;2023-06-22T10:52:30;24.18;63.75
68439;SHT31;55421;51.600;5.718;2023-06-22T10:54:56;24.19;63.72
68439;SHT31;55421;51.600;5.718;2023-06-22T10:57:23;24.20;63.73
68439;SHT31;55421;51.600;5.718;2023-06-22T10:59:50;24.20;63.61
68439;SHT31;55421;51.600;5.718;2023-06-22T11:02:17;24.18;63.34
68439;SHT31;55421;51.600;5.718;2023-06-22T11:04:43;24.18;63.43
68439;SHT31;55421;51.600;5.718;2023-06-22T11:07:10;24.16;63.60
68439;SHT31;55421;51.600;5.718;2023-06-22T11:09:36;24.14;63.62
68439;SHT31;55421;51.600;5.718;2023-06-22T11:12:04;24.12;64.47
68439;SHT31;55421;51.600;5.718;2023-06-22T11:14:31;24.06;65.76
68439;SHT31;55421;51.600;5.718;2023-06-22T11:16:59;23.97;66.58
68439;SHT31;55421;51.600;5.718;2023-06-22T11:19:26;23.86;66.98
68439;SHT31;55421;51.600;5.718;2023-06-22T11:21:52;23.77;67.68
68439;SHT31;55421;51.600;5.718;2023-06-22T11:24:19;23.71;68.10
68439;SHT31;55421;51.600;5.718;2023-06-22T11:26:45;23.64;68.76
68439;SHT31;55421;51.600;5.718;2023-06-22T11:29:12;23.53;68.95
68439;SHT31;55421;51.600;5.718;2023-06-22T11:31:38;23.45;69.44
68439;SHT31;55421;51.600;5.718;2023-06-22T11:34:05;23.36;69.93
68439;SHT31;55421;51.600;5.718;2023-06-22T11:36:31;23.17;70.52
68439;SHT31;55421;51.600;5.718;2023-06-22T11:38:59;22.98;71.17
68439;SHT31;55421;51.600;5.718;2023-06-22T11:41:26;22.84;71.27
68439;SHT31;55421;51.600;5.718;2023-06-22T11:43:52;22.75;71.81
68439;SHT31;55421;51.600;5.718;2023-06-22T11:46:19;22.71;72.56
68439;SHT31;55421;51.600;5.718;2023-06-22T11:48:46;22.69;73.07
68439;SHT31;55421;51.600;5.718;2023-06-22T11:51:12;22.70;72.89
68439;SHT31;55421;51.600;5.718;2023-06-22T11:53:39;22.69;72.86
68439;SHT31;55421;51.600;5.718;2023-06-22T11:56:05;22.63;72.91
68439;SHT31;55421;51.600;5.718;2023-06-22T11:58:32;22.56;73.11
68439;SHT31;55421;51.600;5.718;2023-06-22T12:00:58;22.51;73.52
68439;SHT31;55421;51.600;5.718;2023-06-22T12:03:24;22.45;73.72
68439;SHT31;55421;51.600;5.718;2023-06-22T12:05:51;22.39;74.03
68439;SHT31;55421;51.600;5.718;2023-06-22T12:08:18;22.28;74.30
68439;SHT31;55421;51.600;5.718;2023-06-22T12:10:45;22.17;74.68
68439;SHT31;55421;51.600;5.718;2023-06-22T12:13:11;22.07;74.83
68439;SHT31;55421;51.600;5.718;2023-06-22T12:15:38;22.02;75.06
68439;SHT31;55421;51.600;5.718;2023-06-22T12:18:05;22.00;75.18
68439;SHT31;55421;51.600;5.718;2023-06-22T12:20:31;22.00;75.41
68439;SHT31;55421;51.600;5.718;2023-06-22T12:22:58;22.00;75.53
68439;SHT31;55421;51.600;5.718;2023-06-22T12:25:25;22.03;75.81
68439;SHT31;55421;51.600;5.718;2023-06-22T12:27:51;22.09;75.90
68439;SHT31;55421;51.600;5.718;2023-06-22T12:30:18;22.12;75.91
68439;SHT31;55421;51.600;5.718;2023-06-22T12:32:44;22.13;75.90
68439;SHT31;55421;51.600;5.718;2023-06-22T12:35:11;22.14;76.06
68439;SHT31;55421;51.600;5.718;2023-06-22T12:37:40;22.14;75.92
68439;SHT31;55421;51.600;5.718;2023-06-22T12:40:08;22.11;76.03
68439;SHT31;55421;51.600;5.718;2023-06-22T12:42:36;22.12;76.07
68439;SHT31;55421;51.600;5.718;2023-06-22T12:45:03;22.10;75.70
68439;SHT31;55421;51.600;5.718;2023-06-22T12:47:31;22.08;75.68
68439;SHT31;55421;51.600;5.718;2023-06-22T12:49:57;22.07;75.79
68439;SHT31;55421;51.600;5.718;2023-06-22T12:52:24;22.05;75.97
68439;SHT31;55421;51.600;5.718;2023-06-22T12:54:51;22.03;75.85
68439;SHT31;55421;51.600;5.718;2023-06-22T12:57:18;22.00;75.79
68439;SHT31;55421;51.600;5.718;2023-06-22T12:59:46;21.99;75.77
68439;SHT31;55421;51.600;5.718;2023-06-22T13:02:12;21.99;75.88
68439;SHT31;55421;51.600;5.718;2023-06-22T13:04:39;22.00;76.08
68439;SHT31;55421;51.600;5.718;2023-06-22T13:07:06;22.03;76.06
68439;SHT31;55421;51.600;5.718;2023-06-22T13:09:32;22.02;76.03
68439;SHT31;55421;51.600;5.718;2023-06-22T13:12:01;22.04;76.13
68439;SHT31;55421;51.600;5.718;2023-06-22T13:14:27;22.06;76.18
68439;SHT31;55421;51.600;5.718;2023-06-22T13:16:54;22.07;76.09
68439;SHT31;55421;51.600;5.718;2023-06-22T13:19:20;22.05;75.89
68439;SHT31;55421;51.600;5.718;2023-06-22T13:21:47;21.98;75.91
68439;SHT31;55421;51.600;5.718;2023-06-22T13:24:13;21.94;76.07
68439;SHT31;55421;51.600;5.718;2023-06-22T13:26:40;21.92;76.03
68439;SHT31;55421;51.600;5.718;2023-06-22T13:29:06;21.91;76.10
68439;SHT31;55421;51.600;5.718;2023-06-22T13:31:33;21.89;75.97
68439;SHT31;55421;51.600;5.718;2023-06-22T13:33:59;21.87;75.99
68439;SHT31;55421;51.600;5.718;2023-06-22T13:36:26;21.85;76.05
68439;SHT31;55421;51.600;5.718;2023-06-22T13:38:52;21.81;76.26
68439;SHT31;55421;51.600;5.718;2023-06-22T13:41:19;21.84;76.52
68439;SHT31;55421;51.600;5.718;2023-06-22T13:43:45;21.86;76.28
68439;SHT31;55421;51.600;5.718;2023-06-22T13:46:12;21.86;76.49
68439;SHT31;55421;51.600;5.718;2023-06-22T13:48:38;21.90;76.52
68439;SHT31;55421;51.600;5.718;2023-06-22T13:51:05;21.90;76.32
68439;SHT31;55421;51.600;5.718;2023-06-22T13:53:31;21.91;76.48
68439;SHT31;55421;51.600;5.718;2023-06-22T13:55:58;21.91;76.34
68439;SHT31;55421;51.600;5.718;2023-06-22T13:58:24;21.88;76.34
68439;SHT31;55421;51.600;5.718;2023-06-22T14:00:51;21.86;76.44
68439;SHT31;55421;51.600;5.718;2023-06-22T14:03:17;21.82;76.39
68439;SHT31;55421;51.600;5.718;2023-06-22T14:05:44;21.78;76.52
68439;SHT31;55421;51.600;5.718;2023-06-22T14:08:11;21.73;76.60
68439;SHT31;55421;51.600;5.718;2023-06-22T14:10:38;21.68;76.60
68439;SHT31;55421;51.600;5.718;2023-06-22T14:13:04;21.65;76.62
68439;SHT31;55421;51.600;5.718;2023-06-22T14:15:32;21.60;76.46
68439;SHT31;55421;51.600;5.718;2023-06-22T14:17:58;21.56;76.38
68439;SHT31;55421;51.600;5.718;2023-06-22T14:20:25;21.51;76.38
68439;SHT31;55421;51.600;5.718;2023-06-22T14:22:52;21.44;76.41
68439;SHT31;55421;51.600;5.718;2023-06-22T14:25:18;21.36;76.33
68439;SHT31;55421;51.600;5.718;2023-06-22T14:27:45;21.28;76.49
68439;SHT31;55421;51.600;5.718;2023-06-22T14:30:11;21.16;76.83
68439;SHT31;55421;51.600;5.718;2023-06-22T14:32:38;21.06;77.03
68439;SHT31;55421;51.600;5.718;2023-06-22T14:35:04;20.98;77.32
68439;SHT31;55421;51.600;5.718;2023-06-22T14:37:31;20.96;77.50
68439;SHT31;55421;51.600;5.718;2023-06-22T14:39:58;20.93;77.51
68439;SHT31;55421;51.600;5.718;2023-06-22T14:42:25;20.88;77.52
68439;SHT31;55421;51.600;5.718;2023-06-22T14:44:52;20.81;77.69
68439;SHT31;55421;51.600;5.718;2023-06-22T14:47:19;20.76;78.10
68439;SHT31;55421;51.600;5.718;2023-06-22T14:49:47;20.70;78.37
68439;SHT31;55421;51.600;5.718;2023-06-22T14:52:14;20.66;78.58
68439;SHT31;55421;51.600;5.718;2023-06-22T14:54:41;20.63;78.86
68439;SHT31;55421;51.600;5.718;2023-06-22T14:57:07;20.61;79.04
68439;SHT31;55421;51.600;5.718;2023-06-22T14:59:33;20.59;79.38
68439;SHT31;55421;51.600;5.718;2023-06-22T15:02:00;20.57;79.65
68439;SHT31;55421;51.600;5.718;2023-06-22T15:04:26;20.57;79.73
68439;SHT31;55421;51.600;5.718;2023-06-22T15:06:57;20.57;79.82
68439;SHT31;55421;51.600;5.718;2023-06-22T15:09:24;20.60;79.91
68439;SHT31;55421;51.600;5.718;2023-06-22T15:11:50;20.61;79.82
68439;SHT31;55421;51.600;5.718;2023-06-22T15:14:17;20.63;79.84
68439;SHT31;55421;51.600;5.718;2023-06-22T15:16:44;20.65;79.83
68439;SHT31;55421;51.600;5.718;2023-06-22T15:19:10;20.65;79.78
68439;SHT31;55421;51.600;5.718;2023-06-22T15:21:38;20.64;79.81
68439;SHT31;55421;51.600;5.718;2023-06-22T15:24:05;20.62;79.78
68439;SHT31;55421;51.600;5.718;2023-06-22T15:26:32;20.62;79.88
68439;SHT31;55421;51.600;5.718;2023-06-22T15:28:58;20.63;79.88
68439;SHT31;55421;51.600;5.718;2023-06-22T15:31:26;20.63;79.87
68439;SHT31;55421;51.600;5.718;2023-06-22T15:33:53;20.64;79.97
68439;SHT31;55421;51.600;5.718;2023-06-22T15:36:19;20.64;80.00
68439;SHT31;55421;51.600;5.718;2023-06-22T15:38:46;20.61;80.04
68439;SHT31;55421;51.600;5.718;2023-06-22T15:41:13;20.60;80.12
68439;SHT31;55421;51.600;5.718;2023-06-22T15:43:39;20.58;80.13